Roslindale, Massachusetts
Current Conditions -  °F | °C
As of 7:03 AM on Thursday 23 Oct 2014 (Local Time) from KOWD Reporting Station
Moderate Rain Moderate Rain  
Wind Chill: 51°   Ceiling: 5000
Heat Index: 51°   Visibility: 5mi
Dew Point: 49°   Wind: 14mph
Humidity: 92%   Direction: 360°N
Pressure: 29.66"   Gusts: 26mph
Location:  42.28°N, 71.13°W
Report Text: KOWD 231103Z 36012G23KT 5SM RA BR SCT013 BKN050 OVC080 11/09 A2966 RMK AO2 P0002 T01060094
Loading
Personal Weather Stations






























Interactive Weather Map
Tropical Storm Tracking
New forecast layout! Learn more

10-Day Weather Forecast

Advertisements
Track Severe Weather on mobile